sensor_id;sensor_type;location;lat;lon;timestamp;P1;durP1;ratioP1;P2;durP2;ratioP2
71629;SDS011;59479;51.902;8.212;2022-11-20T00:02:13;22.87;;;12.27;;
71629;SDS011;59479;51.902;8.212;2022-11-20T00:04:39;21.77;;;11.32;;
71629;SDS011;59479;51.902;8.212;2022-11-20T00:07:04;20.33;;;11.23;;
71629;SDS011;59479;51.902;8.212;2022-11-20T00:09:30;20.97;;;11.33;;
71629;SDS011;59479;51.902;8.212;2022-11-20T00:11:55;17.63;;;10.73;;
71629;SDS011;59479;51.902;8.212;2022-11-20T00:14:20;20.60;;;11.60;;
71629;SDS011;59479;51.902;8.212;2022-11-20T00:16:45;23.90;;;11.27;;
71629;SDS011;59479;51.902;8.212;2022-11-20T00:19:11;19.27;;;11.43;;
71629;SDS011;59479;51.902;8.212;2022-11-20T00:21:36;19.50;;;10.07;;
71629;SDS011;59479;51.902;8.212;2022-11-20T00:24:01;20.50;;;10.80;;
71629;SDS011;59479;51.902;8.212;2022-11-20T00:26:27;18.13;;;10.20;;
71629;SDS011;59479;51.902;8.212;2022-11-20T00:28:53;22.30;;;10.98;;
71629;SDS011;59479;51.902;8.212;2022-11-20T00:31:20;19.20;;;9.77;;
71629;SDS011;59479;51.902;8.212;2022-11-20T00:33:46;19.67;;;10.13;;
71629;SDS011;59479;51.902;8.212;2022-11-20T00:36:13;19.15;;;10.30;;
71629;SDS011;59479;51.902;8.212;2022-11-20T00:38:40;19.10;;;9.93;;
71629;SDS011;59479;51.902;8.212;2022-11-20T00:41:06;21.37;;;11.27;;
71629;SDS011;59479;51.902;8.212;2022-11-20T00:43:33;19.63;;;11.30;;
71629;SDS011;59479;51.902;8.212;2022-11-20T00:45:59;21.02;;;11.40;;
71629;SDS011;59479;51.902;8.212;2022-11-20T00:48:25;19.38;;;10.88;;
71629;SDS011;59479;51.902;8.212;2022-11-20T00:50:51;18.83;;;10.73;;
71629;SDS011;59479;51.902;8.212;2022-11-20T00:53:17;21.02;;;11.70;;
71629;SDS011;59479;51.902;8.212;2022-11-20T00:55:42;20.70;;;10.67;;
71629;SDS011;59479;51.902;8.212;2022-11-20T00:58:07;18.10;;;10.80;;
71629;SDS011;59479;51.902;8.212;2022-11-20T01:00:33;21.53;;;10.87;;
71629;SDS011;59479;51.902;8.212;2022-11-20T01:02:58;20.07;;;11.93;;
71629;SDS011;59479;51.902;8.212;2022-11-20T01:05:23;23.77;;;11.93;;
71629;SDS011;59479;51.902;8.212;2022-11-20T01:07:49;17.07;;;11.03;;
71629;SDS011;59479;51.902;8.212;2022-11-20T01:10:14;18.47;;;10.63;;
71629;SDS011;59479;51.902;8.212;2022-11-20T01:12:39;21.67;;;11.75;;
71629;SDS011;59479;51.902;8.212;2022-11-20T01:15:04;20.43;;;11.27;;
71629;SDS011;59479;51.902;8.212;2022-11-20T01:17:31;21.10;;;11.03;;
71629;SDS011;59479;51.902;8.212;2022-11-20T01:19:56;20.27;;;10.88;;
71629;SDS011;59479;51.902;8.212;2022-11-20T01:22:22;21.13;;;11.23;;
71629;SDS011;59479;51.902;8.212;2022-11-20T01:24:47;23.80;;;10.83;;
71629;SDS011;59479;51.902;8.212;2022-11-20T01:27:12;17.97;;;11.00;;
71629;SDS011;59479;51.902;8.212;2022-11-20T01:29:38;21.30;;;10.57;;
71629;SDS011;59479;51.902;8.212;2022-11-20T01:32:03;19.87;;;11.60;;
71629;SDS011;59479;51.902;8.212;2022-11-20T01:34:28;19.85;;;10.68;;
71629;SDS011;59479;51.902;8.212;2022-11-20T01:36:54;19.83;;;11.03;;
71629;SDS011;59479;51.902;8.212;2022-11-20T01:39:20;22.77;;;11.47;;
71629;SDS011;59479;51.902;8.212;2022-11-20T01:41:49;22.58;;;10.98;;
71629;SDS011;59479;51.902;8.212;2022-11-20T01:47:44;21.05;;;11.15;;
71629;SDS011;59479;51.902;8.212;2022-11-20T01:50:15;19.52;;;10.52;;
71629;SDS011;59479;51.902;8.212;2022-11-20T01:52:45;21.92;;;11.02;;
71629;SDS011;59479;51.902;8.212;2022-11-20T01:55:17;18.95;;;11.00;;
71629;SDS011;59479;51.902;8.212;2022-11-20T01:57:45;19.77;;;10.60;;
71629;SDS011;59479;51.902;8.212;2022-11-20T02:00:14;17.58;;;10.80;;
71629;SDS011;59479;51.902;8.212;2022-11-20T02:02:42;21.48;;;11.07;;
71629;SDS011;59479;51.902;8.212;2022-11-20T02:08:10;17.98;;;10.38;;
71629;SDS011;59479;51.902;8.212;2022-11-20T02:10:35;18.93;;;10.73;;
71629;SDS011;59479;51.902;8.212;2022-11-20T02:13:01;21.00;;;10.87;;
71629;SDS011;59479;51.902;8.212;2022-11-20T02:15:45;17.42;;;10.38;;
71629;SDS011;59479;51.902;8.212;2022-11-20T02:18:11;19.20;;;10.20;;
71629;SDS011;59479;51.902;8.212;2022-11-20T02:20:40;18.05;;;10.13;;
71629;SDS011;59479;51.902;8.212;2022-11-20T02:23:10;21.73;;;11.38;;
71629;SDS011;59479;51.902;8.212;2022-11-20T02:25:38;18.77;;;10.40;;
71629;SDS011;59479;51.902;8.212;2022-11-20T02:28:05;21.88;;;11.90;;
71629;SDS011;59479;51.902;8.212;2022-11-20T02:30:30;22.27;;;11.33;;
71629;SDS011;59479;51.902;8.212;2022-11-20T02:32:57;20.10;;;10.73;;
71629;SDS011;59479;51.902;8.212;2022-11-20T02:37:48;19.40;;;10.63;;
71629;SDS011;59479;51.902;8.212;2022-11-20T02:40:15;21.23;;;10.95;;
71629;SDS011;59479;51.902;8.212;2022-11-20T02:42:41;19.80;;;10.33;;
71629;SDS011;59479;51.902;8.212;2022-11-20T02:45:07;19.03;;;10.10;;
71629;SDS011;59479;51.902;8.212;2022-11-20T02:47:32;16.77;;;9.35;;
71629;SDS011;59479;51.902;8.212;2022-11-20T02:49:58;18.42;;;10.38;;
71629;SDS011;59479;51.902;8.212;2022-11-20T02:52:24;20.43;;;10.90;;
71629;SDS011;59479;51.902;8.212;2022-11-20T02:54:49;16.58;;;9.35;;
71629;SDS011;59479;51.902;8.212;2022-11-20T03:00:22;18.37;;;9.53;;
71629;SDS011;59479;51.902;8.212;2022-11-20T03:04:14;14.30;;;8.40;;
71629;SDS011;59479;51.902;8.212;2022-11-20T03:07:05;15.98;;;8.93;;
71629;SDS011;59479;51.902;8.212;2022-11-20T03:14:15;18.45;;;9.02;;
71629;SDS011;59479;51.902;8.212;2022-11-20T03:22:07;15.98;;;8.80;;
71629;SDS011;59479;51.902;8.212;2022-11-20T03:25:56;16.52;;;9.48;;
71629;SDS011;59479;51.902;8.212;2022-11-20T03:32:08;14.85;;;8.20;;
71629;SDS011;59479;51.902;8.212;2022-11-20T03:36:16;15.90;;;9.17;;
71629;SDS011;59479;51.902;8.212;2022-11-20T03:39:44;16.58;;;8.75;;
71629;SDS011;59479;51.902;8.212;2022-11-20T03:46:35;15.48;;;9.27;;
71629;SDS011;59479;51.902;8.212;2022-11-20T03:54:00;16.90;;;9.37;;
71629;SDS011;59479;51.902;8.212;2022-11-20T04:17:54;16.00;;;8.57;;
71629;SDS011;59479;51.902;8.212;2022-11-20T04:21:22;18.08;;;8.93;;
71629;SDS011;59479;51.902;8.212;2022-11-20T04:24:56;16.95;;;10.02;;
71629;SDS011;59479;51.902;8.212;2022-11-20T04:41:35;16.35;;;9.13;;
71629;SDS011;59479;51.902;8.212;2022-11-20T05:12:57;16.08;;;8.52;;
71629;SDS011;59479;51.902;8.212;2022-11-20T05:16:37;15.07;;;9.45;;
71629;SDS011;59479;51.902;8.212;2022-11-20T05:23:31;17.35;;;8.57;;
71629;SDS011;59479;51.902;8.212;2022-11-20T05:26:47;17.00;;;8.82;;
71629;SDS011;59479;51.902;8.212;2022-11-20T05:33:46;17.95;;;8.73;;
71629;SDS011;59479;51.902;8.212;2022-11-20T05:37:14;18.17;;;8.43;;
71629;SDS011;59479;51.902;8.212;2022-11-20T05:44:13;15.75;;;8.88;;
71629;SDS011;59479;51.902;8.212;2022-11-20T05:48:00;18.60;;;9.35;;
71629;SDS011;59479;51.902;8.212;2022-11-20T05:51:18;16.77;;;8.77;;
71629;SDS011;59479;51.902;8.212;2022-11-20T05:54:33;14.50;;;8.47;;
71629;SDS011;59479;51.902;8.212;2022-11-20T06:01:43;15.75;;;8.82;;
71629;SDS011;59479;51.902;8.212;2022-11-20T06:05:15;18.30;;;8.82;;
71629;SDS011;59479;51.902;8.212;2022-11-20T06:12:04;16.57;;;8.70;;
71629;SDS011;59479;51.902;8.212;2022-11-20T06:15:14;14.60;;;8.35;;
71629;SDS011;59479;51.902;8.212;2022-11-20T06:21:59;18.70;;;9.10;;
71629;SDS011;59479;51.902;8.212;2022-11-20T06:25:04;17.65;;;8.32;;
71629;SDS011;59479;51.902;8.212;2022-11-20T06:28:31;16.07;;;8.23;;
71629;SDS011;59479;51.902;8.212;2022-11-20T06:35:10;16.30;;;8.70;;
71629;SDS011;59479;51.902;8.212;2022-11-20T06:38:41;17.85;;;9.07;;
71629;SDS011;59479;51.902;8.212;2022-11-20T06:41:51;17.80;;;8.52;;
71629;SDS011;59479;51.902;8.212;2022-11-20T06:45:22;14.43;;;8.27;;
71629;SDS011;59479;51.902;8.212;2022-11-20T06:48:59;18.38;;;8.73;;
71629;SDS011;59479;51.902;8.212;2022-11-20T06:52:15;15.13;;;8.68;;
71629;SDS011;59479;51.902;8.212;2022-11-20T06:58:08;16.60;;;9.52;;
71629;SDS011;59479;51.902;8.212;2022-11-20T07:00:34;13.73;;;7.97;;
71629;SDS011;59479;51.902;8.212;2022-11-20T07:03:02;14.90;;;8.40;;
71629;SDS011;59479;51.902;8.212;2022-11-20T07:05:28;16.65;;;9.68;;
71629;SDS011;59479;51.902;8.212;2022-11-20T07:07:55;16.50;;;8.93;;
71629;SDS011;59479;51.902;8.212;2022-11-20T07:10:21;14.77;;;8.55;;
71629;SDS011;59479;51.902;8.212;2022-11-20T07:12:50;19.97;;;9.10;;
71629;SDS011;59479;51.902;8.212;2022-11-20T07:15:17;16.23;;;8.73;;
71629;SDS011;59479;51.902;8.212;2022-11-20T07:17:46;17.40;;;9.30;;
71629;SDS011;59479;51.902;8.212;2022-11-20T07:20:12;16.77;;;9.93;;
71629;SDS011;59479;51.902;8.212;2022-11-20T07:22:38;16.70;;;9.27;;
71629;SDS011;59479;51.902;8.212;2022-11-20T07:25:03;16.47;;;9.67;;
71629;SDS011;59479;51.902;8.212;2022-11-20T07:27:29;13.85;;;8.07;;
71629;SDS011;59479;51.902;8.212;2022-11-20T07:29:55;16.58;;;9.63;;
71629;SDS011;59479;51.902;8.212;2022-11-20T07:32:20;19.92;;;9.95;;
71629;SDS011;59479;51.902;8.212;2022-11-20T07:34:47;21.93;;;10.40;;
71629;SDS011;59479;51.902;8.212;2022-11-20T07:37:13;16.30;;;9.48;;
71629;SDS011;59479;51.902;8.212;2022-11-20T07:39:39;20.37;;;10.43;;
71629;SDS011;59479;51.902;8.212;2022-11-20T07:42:05;18.02;;;9.90;;
71629;SDS011;59479;51.902;8.212;2022-11-20T07:44:32;20.00;;;9.67;;
71629;SDS011;59479;51.902;8.212;2022-11-20T07:46:57;16.50;;;9.63;;
71629;SDS011;59479;51.902;8.212;2022-11-20T07:49:22;18.52;;;9.80;;
71629;SDS011;59479;51.902;8.212;2022-11-20T07:51:49;20.23;;;10.13;;
71629;SDS011;59479;51.902;8.212;2022-11-20T07:54:15;17.17;;;9.67;;
71629;SDS011;59479;51.902;8.212;2022-11-20T07:56:41;19.38;;;9.70;;
71629;SDS011;59479;51.902;8.212;2022-11-20T07:59:06;21.40;;;10.90;;
71629;SDS011;59479;51.902;8.212;2022-11-20T08:01:31;21.23;;;10.63;;
71629;SDS011;59479;51.902;8.212;2022-11-20T08:03:57;17.90;;;9.93;;
71629;SDS011;59479;51.902;8.212;2022-11-20T08:06:22;18.67;;;10.13;;
71629;SDS011;59479;51.902;8.212;2022-11-20T08:08:49;18.35;;;9.82;;
71629;SDS011;59479;51.902;8.212;2022-11-20T08:11:15;19.00;;;9.90;;
71629;SDS011;59479;51.902;8.212;2022-11-20T08:13:58;19.70;;;9.75;;
71629;SDS011;59479;51.902;8.212;2022-11-20T08:19:04;16.73;;;9.73;;
71629;SDS011;59479;51.902;8.212;2022-11-20T08:21:30;18.37;;;9.13;;
71629;SDS011;59479;51.902;8.212;2022-11-20T08:23:56;17.80;;;9.85;;
71629;SDS011;59479;51.902;8.212;2022-11-20T08:26:22;18.02;;;9.00;;
71629;SDS011;59479;51.902;8.212;2022-11-20T08:28:48;17.17;;;9.20;;
71629;SDS011;59479;51.902;8.212;2022-11-20T08:31:13;17.95;;;9.15;;
71629;SDS011;59479;51.902;8.212;2022-11-20T08:33:39;17.90;;;9.35;;
71629;SDS011;59479;51.902;8.212;2022-11-20T08:36:04;14.67;;;8.30;;
71629;SDS011;59479;51.902;8.212;2022-11-20T08:38:30;14.17;;;9.17;;
71629;SDS011;59479;51.902;8.212;2022-11-20T08:40:57;16.73;;;9.13;;
71629;SDS011;59479;51.902;8.212;2022-11-20T08:43:42;17.98;;;9.82;;
71629;SDS011;59479;51.902;8.212;2022-11-20T08:46:07;17.30;;;8.73;;
71629;SDS011;59479;51.902;8.212;2022-11-20T08:48:32;17.10;;;9.90;;
71629;SDS011;59479;51.902;8.212;2022-11-20T08:50:58;17.03;;;9.07;;
71629;SDS011;59479;51.902;8.212;2022-11-20T08:53:24;18.40;;;9.02;;
71629;SDS011;59479;51.902;8.212;2022-11-20T08:55:50;15.55;;;8.23;;
71629;SDS011;59479;51.902;8.212;2022-11-20T08:58:15;17.70;;;9.00;;
71629;SDS011;59479;51.902;8.212;2022-11-20T09:00:40;16.50;;;9.30;;
71629;SDS011;59479;51.902;8.212;2022-11-20T09:03:06;18.23;;;8.13;;
71629;SDS011;59479;51.902;8.212;2022-11-20T09:05:31;16.00;;;8.20;;
71629;SDS011;59479;51.902;8.212;2022-11-20T09:07:57;19.55;;;10.00;;
71629;SDS011;59479;51.902;8.212;2022-11-20T09:10:23;16.03;;;9.00;;
71629;SDS011;59479;51.902;8.212;2022-11-20T09:12:48;15.25;;;8.68;;
71629;SDS011;59479;51.902;8.212;2022-11-20T09:15:14;17.57;;;8.83;;
71629;SDS011;59479;51.902;8.212;2022-11-20T09:17:40;18.48;;;9.10;;
71629;SDS011;59479;51.902;8.212;2022-11-20T09:20:05;15.87;;;8.70;;
71629;SDS011;59479;51.902;8.212;2022-11-20T09:22:31;19.73;;;9.13;;
71629;SDS011;59479;51.902;8.212;2022-11-20T09:24:56;20.13;;;10.00;;
71629;SDS011;59479;51.902;8.212;2022-11-20T09:27:21;17.43;;;9.33;;
71629;SDS011;59479;51.902;8.212;2022-11-20T09:29:47;18.77;;;10.65;;
71629;SDS011;59479;51.902;8.212;2022-11-20T09:32:12;19.15;;;10.60;;
71629;SDS011;59479;51.902;8.212;2022-11-20T09:34:37;20.70;;;12.47;;
71629;SDS011;59479;51.902;8.212;2022-11-20T09:37:03;19.53;;;10.60;;
71629;SDS011;59479;51.902;8.212;2022-11-20T09:39:28;19.63;;;10.23;;
71629;SDS011;59479;51.902;8.212;2022-11-20T09:42:13;20.30;;;11.00;;
71629;SDS011;59479;51.902;8.212;2022-11-20T09:45:01;18.55;;;10.45;;
71629;SDS011;59479;51.902;8.212;2022-11-20T09:50:33;19.15;;;9.82;;
71629;SDS011;59479;51.902;8.212;2022-11-20T09:53:10;18.27;;;9.73;;
71629;SDS011;59479;51.902;8.212;2022-11-20T09:55:40;21.52;;;11.00;;
71629;SDS011;59479;51.902;8.212;2022-11-20T09:58:07;20.15;;;11.48;;
71629;SDS011;59479;51.902;8.212;2022-11-20T10:00:36;21.00;;;11.15;;
71629;SDS011;59479;51.902;8.212;2022-11-20T10:05:47;19.50;;;10.02;;
71629;SDS011;59479;51.902;8.212;2022-11-20T10:08:27;19.27;;;9.88;;
71629;SDS011;59479;51.902;8.212;2022-11-20T10:11:05;17.02;;;8.63;;
71629;SDS011;59479;51.902;8.212;2022-11-20T10:13:42;20.13;;;9.45;;
71629;SDS011;59479;51.902;8.212;2022-11-20T10:29:29;18.10;;;7.77;;
71629;SDS011;59479;51.902;8.212;2022-11-20T10:32:18;13.73;;;7.05;;
71629;SDS011;59479;51.902;8.212;2022-11-20T10:34:54;14.98;;;8.30;;
71629;SDS011;59479;51.902;8.212;2022-11-20T10:37:25;16.33;;;8.50;;
71629;SDS011;59479;51.902;8.212;2022-11-20T10:42:34;15.43;;;8.17;;
71629;SDS011;59479;51.902;8.212;2022-11-20T10:47:48;16.10;;;9.00;;
71629;SDS011;59479;51.902;8.212;2022-11-20T10:50:14;18.13;;;9.93;;
71629;SDS011;59479;51.902;8.212;2022-11-20T10:55:26;18.42;;;9.00;;
71629;SDS011;59479;51.902;8.212;2022-11-20T10:58:22;17.40;;;8.60;;
71629;SDS011;59479;51.902;8.212;2022-11-20T11:01:38;15.00;;;8.30;;
71629;SDS011;59479;51.902;8.212;2022-11-20T11:03:52;16.75;;;8.88;;
71629;SDS011;59479;51.902;8.212;2022-11-20T11:06:39;17.15;;;8.93;;
71629;SDS011;59479;51.902;8.212;2022-11-20T11:09:10;16.45;;;8.68;;
71629;SDS011;59479;51.902;8.212;2022-11-20T11:11:38;16.53;;;8.47;;
71629;SDS011;59479;51.902;8.212;2022-11-20T11:14:05;15.20;;;8.65;;
71629;SDS011;59479;51.902;8.212;2022-11-20T11:16:32;17.23;;;9.27;;
71629;SDS011;59479;51.902;8.212;2022-11-20T11:19:07;17.52;;;9.10;;
71629;SDS011;59479;51.902;8.212;2022-11-20T11:21:38;15.15;;;8.27;;
71629;SDS011;59479;51.902;8.212;2022-11-20T11:24:29;14.93;;;8.43;;
71629;SDS011;59479;51.902;8.212;2022-11-20T11:26:59;16.42;;;8.27;;
71629;SDS011;59479;51.902;8.212;2022-11-20T11:29:31;16.13;;;8.30;;
71629;SDS011;59479;51.902;8.212;2022-11-20T11:32:08;17.88;;;8.10;;
71629;SDS011;59479;51.902;8.212;2022-11-20T11:34:37;18.20;;;8.30;;
71629;SDS011;59479;51.902;8.212;2022-11-20T11:37:03;14.87;;;8.60;;
71629;SDS011;59479;51.902;8.212;2022-11-20T11:39:31;15.93;;;8.38;;
71629;SDS011;59479;51.902;8.212;2022-11-20T11:41:58;18.73;;;8.60;;
71629;SDS011;59479;51.902;8.212;2022-11-20T11:44:29;18.05;;;9.30;;
71629;SDS011;59479;51.902;8.212;2022-11-20T11:50:00;15.90;;;8.68;;
71629;SDS011;59479;51.902;8.212;2022-11-20T12:01:01;17.15;;;8.77;;
71629;SDS011;59479;51.902;8.212;2022-11-20T12:03:39;19.42;;;8.50;;
71629;SDS011;59479;51.902;8.212;2022-11-20T12:06:11;17.30;;;8.45;;
71629;SDS011;59479;51.902;8.212;2022-11-20T12:08:50;18.47;;;8.80;;
71629;SDS011;59479;51.902;8.212;2022-11-20T12:11:29;17.77;;;8.35;;
71629;SDS011;59479;51.902;8.212;2022-11-20T12:16:58;16.67;;;8.80;;
71629;SDS011;59479;51.902;8.212;2022-11-20T12:19:25;18.38;;;8.68;;
71629;SDS011;59479;51.902;8.212;2022-11-20T12:25:17;16.42;;;7.78;;
71629;SDS011;59479;51.902;8.212;2022-11-20T12:30:21;17.15;;;8.23;;
71629;SDS011;59479;51.902;8.212;2022-11-20T12:32:51;16.33;;;8.13;;
71629;SDS011;59479;51.902;8.212;2022-11-20T12:52:53;19.50;;;9.23;;
71629;SDS011;59479;51.902;8.212;2022-11-20T12:55:42;18.42;;;8.63;;
71629;SDS011;59479;51.902;8.212;2022-11-20T12:58:33;17.38;;;8.85;;
71629;SDS011;59479;51.902;8.212;2022-11-20T13:07:03;16.48;;;7.93;;
71629;SDS011;59479;51.902;8.212;2022-11-20T13:09:32;17.20;;;8.32;;
71629;SDS011;59479;51.902;8.212;2022-11-20T13:12:03;14.80;;;8.07;;
71629;SDS011;59479;51.902;8.212;2022-11-20T13:14:42;29.42;;;7.60;;
71629;SDS011;59479;51.902;8.212;2022-11-20T13:20:12;12.93;;;6.93;;
71629;SDS011;59479;51.902;8.212;2022-11-20T13:25:22;13.60;;;6.90;;
71629;SDS011;59479;51.902;8.212;2022-11-20T13:27:49;16.77;;;7.18;;
71629;SDS011;59479;51.902;8.212;2022-11-20T13:30:16;13.93;;;7.73;;
71629;SDS011;59479;51.902;8.212;2022-11-20T13:32:50;14.30;;;7.78;;
71629;SDS011;59479;51.902;8.212;2022-11-20T13:35:28;17.13;;;8.35;;
71629;SDS011;59479;51.902;8.212;2022-11-20T13:40:30;16.57;;;7.10;;
71629;SDS011;59479;51.902;8.212;2022-11-20T13:43:00;17.02;;;8.02;;
71629;SDS011;59479;51.902;8.212;2022-11-20T13:45:32;15.60;;;7.38;;
71629;SDS011;59479;51.902;8.212;2022-11-20T13:47:59;16.57;;;7.27;;
71629;SDS011;59479;51.902;8.212;2022-11-20T13:58:21;15.23;;;7.83;;
71629;SDS011;59479;51.902;8.212;2022-11-20T14:01:10;16.38;;;7.78;;
71629;SDS011;59479;51.902;8.212;2022-11-20T14:03:40;17.65;;;8.60;;
71629;SDS011;59479;51.902;8.212;2022-11-20T14:06:11;16.05;;;8.05;;
71629;SDS011;59479;51.902;8.212;2022-11-20T14:08:47;18.35;;;9.25;;
71629;SDS011;59479;51.902;8.212;2022-11-20T14:11:19;17.10;;;8.60;;
71629;SDS011;59479;51.902;8.212;2022-11-20T14:13:58;18.30;;;8.50;;
71629;SDS011;59479;51.902;8.212;2022-11-20T14:16:26;17.85;;;8.98;;
71629;SDS011;59479;51.902;8.212;2022-11-20T14:18:53;22.00;;;8.88;;
71629;SDS011;59479;51.902;8.212;2022-11-20T14:21:27;18.10;;;9.02;;
71629;SDS011;59479;51.902;8.212;2022-11-20T14:24:07;17.50;;;8.80;;
71629;SDS011;59479;51.902;8.212;2022-11-20T14:26:36;18.15;;;8.98;;
71629;SDS011;59479;51.902;8.212;2022-11-20T14:29:10;19.42;;;9.48;;
71629;SDS011;59479;51.902;8.212;2022-11-20T14:31:38;18.85;;;9.43;;
71629;SDS011;59479;51.902;8.212;2022-11-20T14:34:03;21.83;;;10.10;;
71629;SDS011;59479;51.902;8.212;2022-11-20T14:36:29;20.33;;;9.70;;
71629;SDS011;59479;51.902;8.212;2022-11-20T14:38:54;19.17;;;8.90;;
71629;SDS011;59479;51.902;8.212;2022-11-20T14:41:23;20.60;;;10.47;;
71629;SDS011;59479;51.902;8.212;2022-11-20T14:43:58;18.50;;;9.95;;
71629;SDS011;59479;51.902;8.212;2022-11-20T14:46:24;19.33;;;9.90;;
71629;SDS011;59479;51.902;8.212;2022-11-20T14:48:54;21.07;;;10.73;;
71629;SDS011;59479;51.902;8.212;2022-11-20T14:51:31;18.95;;;10.38;;
71629;SDS011;59479;51.902;8.212;2022-11-20T14:54:14;20.55;;;9.88;;
71629;SDS011;59479;51.902;8.212;2022-11-20T14:59:26;21.83;;;11.27;;
71629;SDS011;59479;51.902;8.212;2022-11-20T15:01:55;22.42;;;11.52;;
71629;SDS011;59479;51.902;8.212;2022-11-20T15:04:23;20.73;;;10.60;;
71629;SDS011;59479;51.902;8.212;2022-11-20T15:06:49;19.80;;;10.73;;
71629;SDS011;59479;51.902;8.212;2022-11-20T15:09:16;20.65;;;11.05;;
71629;SDS011;59479;51.902;8.212;2022-11-20T15:11:50;19.93;;;11.60;;
71629;SDS011;59479;51.902;8.212;2022-11-20T15:14:19;27.58;;;12.02;;
71629;SDS011;59479;51.902;8.212;2022-11-20T15:16:44;25.27;;;12.73;;
71629;SDS011;59479;51.902;8.212;2022-11-20T15:19:22;24.40;;;11.90;;
71629;SDS011;59479;51.902;8.212;2022-11-20T15:21:51;25.63;;;13.48;;
71629;SDS011;59479;51.902;8.212;2022-11-20T15:24:16;25.93;;;12.93;;
71629;SDS011;59479;51.902;8.212;2022-11-20T15:26:42;28.58;;;13.85;;
71629;SDS011;59479;51.902;8.212;2022-11-20T15:29:12;28.73;;;13.73;;
71629;SDS011;59479;51.902;8.212;2022-11-20T15:31:39;29.08;;;13.23;;
71629;SDS011;59479;51.902;8.212;2022-11-20T15:34:13;27.48;;;13.20;;
71629;SDS011;59479;51.902;8.212;2022-11-20T15:36:40;27.55;;;14.55;;
71629;SDS011;59479;51.902;8.212;2022-11-20T15:39:06;28.17;;;14.05;;
71629;SDS011;59479;51.902;8.212;2022-11-20T15:41:36;28.13;;;12.53;;
71629;SDS011;59479;51.902;8.212;2022-11-20T15:44:05;28.58;;;12.75;;
71629;SDS011;59479;51.902;8.212;2022-11-20T15:46:31;27.50;;;12.80;;
71629;SDS011;59479;51.902;8.212;2022-11-20T15:49:02;28.30;;;12.88;;
71629;SDS011;59479;51.902;8.212;2022-11-20T15:51:31;29.43;;;13.20;;
71629;SDS011;59479;51.902;8.212;2022-11-20T15:53:59;25.60;;;12.07;;
71629;SDS011;59479;51.902;8.212;2022-11-20T15:56:25;27.05;;;13.30;;
71629;SDS011;59479;51.902;8.212;2022-11-20T15:58:51;27.33;;;13.45;;
71629;SDS011;59479;51.902;8.212;2022-11-20T16:01:17;24.33;;;14.65;;
71629;SDS011;59479;51.902;8.212;2022-11-20T16:03:44;25.98;;;13.27;;
71629;SDS011;59479;51.902;8.212;2022-11-20T16:06:10;28.70;;;12.93;;
71629;SDS011;59479;51.902;8.212;2022-11-20T16:08:35;23.87;;;12.10;;
71629;SDS011;59479;51.902;8.212;2022-11-20T16:11:01;25.17;;;12.13;;
71629;SDS011;59479;51.902;8.212;2022-11-20T16:13:26;25.13;;;11.93;;
71629;SDS011;59479;51.902;8.212;2022-11-20T16:16:20;22.48;;;11.02;;
71629;SDS011;59479;51.902;8.212;2022-11-20T16:18:48;23.73;;;11.83;;
71629;SDS011;59479;51.902;8.212;2022-11-20T16:21:13;24.70;;;11.90;;
71629;SDS011;59479;51.902;8.212;2022-11-20T16:23:41;24.77;;;13.00;;
71629;SDS011;59479;51.902;8.212;2022-11-20T16:26:14;22.38;;;11.75;;
71629;SDS011;59479;51.902;8.212;2022-11-20T16:28:42;23.65;;;12.32;;
71629;SDS011;59479;51.902;8.212;2022-11-20T16:31:08;25.92;;;11.90;;
71629;SDS011;59479;51.902;8.212;2022-11-20T16:33:35;21.58;;;11.30;;
71629;SDS011;59479;51.902;8.212;2022-11-20T16:36:09;23.00;;;10.90;;
71629;SDS011;59479;51.902;8.212;2022-11-20T16:38:36;22.00;;;12.07;;
71629;SDS011;59479;51.902;8.212;2022-11-20T16:41:02;23.85;;;10.73;;
71629;SDS011;59479;51.902;8.212;2022-11-20T16:43:28;22.33;;;11.80;;
71629;SDS011;59479;51.902;8.212;2022-11-20T16:45:53;22.38;;;11.50;;
71629;SDS011;59479;51.902;8.212;2022-11-20T16:48:18;20.90;;;11.10;;
71629;SDS011;59479;51.902;8.212;2022-11-20T16:50:44;19.70;;;11.00;;
71629;SDS011;59479;51.902;8.212;2022-11-20T16:53:12;24.15;;;11.07;;
71629;SDS011;59479;51.902;8.212;2022-11-20T16:55:37;22.70;;;11.13;;
71629;SDS011;59479;51.902;8.212;2022-11-20T16:58:02;23.00;;;11.17;;
71629;SDS011;59479;51.902;8.212;2022-11-20T17:00:27;21.90;;;12.13;;
71629;SDS011;59479;51.902;8.212;2022-11-20T17:02:53;24.53;;;11.80;;
71629;SDS011;59479;51.902;8.212;2022-11-20T17:05:18;19.63;;;10.77;;
71629;SDS011;59479;51.902;8.212;2022-11-20T17:07:43;21.67;;;11.53;;
71629;SDS011;59479;51.902;8.212;2022-11-20T17:10:09;23.80;;;12.10;;
71629;SDS011;59479;51.902;8.212;2022-11-20T17:12:34;23.03;;;11.53;;
71629;SDS011;59479;51.902;8.212;2022-11-20T17:14:59;20.77;;;10.02;;
71629;SDS011;59479;51.902;8.212;2022-11-20T17:17:25;22.77;;;10.90;;
71629;SDS011;59479;51.902;8.212;2022-11-20T17:19:50;25.93;;;12.30;;
71629;SDS011;59479;51.902;8.212;2022-11-20T17:22:15;21.97;;;12.17;;
71629;SDS011;59479;51.902;8.212;2022-11-20T17:24:41;24.80;;;12.40;;
71629;SDS011;59479;51.902;8.212;2022-11-20T17:27:06;20.30;;;11.07;;
71629;SDS011;59479;51.902;8.212;2022-11-20T17:29:31;20.77;;;11.60;;
71629;SDS011;59479;51.902;8.212;2022-11-20T17:31:56;21.93;;;10.93;;
71629;SDS011;59479;51.902;8.212;2022-11-20T17:34:22;23.25;;;10.55;;
71629;SDS011;59479;51.902;8.212;2022-11-20T17:36:48;21.47;;;10.90;;
71629;SDS011;59479;51.902;8.212;2022-11-20T17:39:14;19.98;;;10.00;;
71629;SDS011;59479;51.902;8.212;2022-11-20T17:41:40;24.20;;;11.30;;
71629;SDS011;59479;51.902;8.212;2022-11-20T17:44:08;23.70;;;10.00;;
71629;SDS011;59479;51.902;8.212;2022-11-20T17:46:34;22.92;;;11.70;;
71629;SDS011;59479;51.902;8.212;2022-11-20T17:49:00;18.27;;;9.33;;
71629;SDS011;59479;51.902;8.212;2022-11-20T17:51:27;25.20;;;11.70;;
71629;SDS011;59479;51.902;8.212;2022-11-20T17:53:58;22.10;;;9.98;;
71629;SDS011;59479;51.902;8.212;2022-11-20T17:56:25;20.35;;;10.55;;
71629;SDS011;59479;51.902;8.212;2022-11-20T17:59:10;18.77;;;9.48;;
71629;SDS011;59479;51.902;8.212;2022-11-20T18:01:37;20.88;;;9.57;;
71629;SDS011;59479;51.902;8.212;2022-11-20T18:04:03;19.97;;;9.40;;
71629;SDS011;59479;51.902;8.212;2022-11-20T18:06:29;18.92;;;9.48;;
71629;SDS011;59479;51.902;8.212;2022-11-20T18:08:58;20.15;;;9.93;;
71629;SDS011;59479;51.902;8.212;2022-11-20T18:11:28;20.52;;;10.73;;
71629;SDS011;59479;51.902;8.212;2022-11-20T18:13:59;20.73;;;10.73;;
71629;SDS011;59479;51.902;8.212;2022-11-20T18:19:12;19.95;;;9.65;;
71629;SDS011;59479;51.902;8.212;2022-11-20T18:21:39;17.55;;;10.13;;
71629;SDS011;59479;51.902;8.212;2022-11-20T18:24:04;20.40;;;10.77;;
71629;SDS011;59479;51.902;8.212;2022-11-20T18:26:30;21.30;;;10.15;;
71629;SDS011;59479;51.902;8.212;2022-11-20T18:28:56;20.10;;;10.40;;
71629;SDS011;59479;51.902;8.212;2022-11-20T18:31:21;20.03;;;9.57;;
71629;SDS011;59479;51.902;8.212;2022-11-20T18:33:47;17.48;;;9.48;;
71629;SDS011;59479;51.902;8.212;2022-11-20T18:38:43;22.27;;;9.98;;
71629;SDS011;59479;51.902;8.212;2022-11-20T18:41:10;17.77;;;9.70;;
71629;SDS011;59479;51.902;8.212;2022-11-20T18:43:54;19.70;;;9.90;;
71629;SDS011;59479;51.902;8.212;2022-11-20T18:46:39;19.35;;;10.00;;
71629;SDS011;59479;51.902;8.212;2022-11-20T18:49:04;17.40;;;9.40;;
71629;SDS011;59479;51.902;8.212;2022-11-20T18:51:29;17.40;;;9.20;;